createdAt,value
2022-12-18T00:00:14.679Z,96434.56
2022-12-18T00:01:25.790Z,96253.78
2022-12-18T00:02:27.571Z,96405.22
2022-12-18T00:03:29.536Z,96436.28
2022-12-18T00:04:31.749Z,96371.16
2022-12-18T00:05:33.453Z,96441.78
2022-12-18T00:06:36.721Z,96393.38
2022-12-18T00:07:39.205Z,96435.34
2022-12-18T00:08:42.834Z,96335.81
2022-12-18T00:09:44.520Z,96388.88
2022-12-18T00:10:46.737Z,96420.50
2022-12-18T00:11:48.805Z,96437.44
2022-12-18T00:12:50.479Z,96383.66
2022-12-18T00:13:54.013Z,96421.44
2022-12-18T00:14:55.703Z,96409.88
2022-12-18T00:16:03.582Z,96430.03
2022-12-18T00:17:05.489Z,96429.69
2022-12-18T00:18:07.474Z,96404.91
2022-12-18T00:19:11.140Z,96463.47
2022-12-18T00:20:12.996Z,96463.13
2022-12-18T00:21:15.590Z,96464.69
2022-12-18T00:22:17.274Z,96460.44
2022-12-18T00:23:19.075Z,96466.34
2022-12-18T00:24:20.745Z,96481.25
2022-12-18T00:25:23.156Z,96374.06
2022-12-18T00:26:28.893Z,96468.72
2022-12-18T00:27:30.670Z,96361.47
2022-12-18T00:28:32.576Z,96340.34
2022-12-18T00:29:34.338Z,96456.06
2022-12-18T00:30:36.156Z,96475.69
2022-12-18T00:31:39.135Z,96475.19
2022-12-18T00:32:41.358Z,96500.47
2022-12-18T00:33:43.584Z,96481.75
2022-12-18T00:34:45.386Z,96442.16
2022-12-18T00:35:47.109Z,96468.72
2022-12-18T00:36:49.237Z,96390.16
2022-12-18T00:37:50.980Z,96334.69
2022-12-18T00:38:54.698Z,96351.16
2022-12-18T00:39:56.425Z,96487.66
2022-12-18T00:40:58.265Z,96466.56
2022-12-18T00:41:59.979Z,96473.56
2022-12-18T00:43:01.683Z,96445.06
2022-12-18T00:44:04.353Z,96419.63
2022-12-18T00:45:12.122Z,96470.38
2022-12-18T00:46:14.544Z,96437.59
2022-12-18T00:47:16.253Z,96459.16
2022-12-18T00:48:18.224Z,96521.00
2022-12-18T00:49:21.072Z,96394.59
2022-12-18T00:50:25.045Z,96491.81
2022-12-18T00:51:27.234Z,96401.41
2022-12-18T00:52:28.873Z,96498.25
2022-12-18T00:53:30.615Z,96488.84
2022-12-18T00:54:32.366Z,96479.88
2022-12-18T00:55:34.067Z,96496.31
2022-12-18T00:56:45.782Z,96495.78
2022-12-18T00:57:53.041Z,96432.50
2022-12-18T00:58:54.679Z,96383.66
2022-12-18T00:59:56.658Z,96482.16
2022-12-18T01:00:58.456Z,96460.06
2022-12-18T01:02:00.227Z,96491.91
2022-12-18T01:03:02.294Z,96506.22
2022-12-18T01:04:04.947Z,96471.78
2022-12-18T01:05:07.468Z,96504.56
2022-12-18T01:06:12.012Z,96503.53
2022-12-18T01:07:13.626Z,96449.53
2022-12-18T01:08:15.343Z,96389.63
2022-12-18T01:09:17.175Z,96510.22
2022-12-18T01:10:19.149Z,96513.41
2022-12-18T01:11:22.026Z,96513.13
2022-12-18T01:12:23.836Z,96484.78
2022-12-18T01:13:25.548Z,96513.41
2022-12-18T01:14:27.559Z,96518.19
2022-12-18T01:15:29.325Z,96500.88
2022-12-18T01:16:31.082Z,96511.94
2022-12-18T01:17:33.134Z,96531.34
2022-12-18T01:18:34.771Z,96486.69
2022-12-18T01:19:36.683Z,96398.47
2022-12-18T01:20:39.319Z,96517.97
2022-12-18T01:21:40.999Z,96482.78
2022-12-18T01:22:43.038Z,96516.06
2022-12-18T01:23:44.797Z,96456.59
2022-12-18T01:24:46.496Z,96509.06
2022-12-18T01:25:48.237Z,96507.66
2022-12-18T01:26:49.990Z,96462.28
2022-12-18T01:27:51.750Z,96521.75
2022-12-18T01:28:55.437Z,96497.63
2022-12-18T01:29:57.257Z,96463.91
2022-12-18T01:30:59.078Z,96517.34
2022-12-18T01:32:00.868Z,96434.38
2022-12-18T01:33:02.808Z,96436.66
2022-12-18T01:34:06.178Z,96314.38
2022-12-18T01:35:08.521Z,96527.09
2022-12-18T01:36:23.141Z,96526.75
2022-12-18T01:37:25.288Z,96526.38
2022-12-18T01:38:27.016Z,96564.22
2022-12-18T01:39:28.782Z,96459.56
2022-12-18T01:40:30.539Z,96493.41
2022-12-18T01:41:34.004Z,96523.75
2022-12-18T01:42:35.693Z,96529.22
2022-12-18T01:43:54.516Z,96389.63
2022-12-18T01:45:07.454Z,96478.47
2022-12-18T01:46:09.770Z,96514.06
2022-12-18T01:47:21.154Z,96483.31
2022-12-18T01:48:22.850Z,96546.44
2022-12-18T01:49:24.571Z,96538.81
2022-12-18T01:50:35.264Z,96347.97
2022-12-18T01:51:37.224Z,96539.47
2022-12-18T01:52:41.968Z,96536.28
2022-12-18T01:53:45.953Z,96376.72
2022-12-18T01:54:50.221Z,96505.03
2022-12-18T01:55:57.277Z,96541.75
2022-12-18T01:56:59.131Z,96479.97
2022-12-18T01:58:01.987Z,96546.97
2022-12-18T01:59:07.813Z,96552.56
2022-12-18T02:00:16.972Z,96378.47
2022-12-18T02:01:19.680Z,96551.56
2022-12-18T02:02:22.344Z,96462.94
2022-12-18T02:03:24.154Z,96522.47
2022-12-18T02:04:27.861Z,96419.88
2022-12-18T02:05:32.094Z,96409.72
2022-12-18T02:06:41.758Z,96539.84
2022-12-18T02:08:24.981Z,96554.28
2022-12-18T02:09:37.021Z,96555.06
2022-12-18T02:10:53.327Z,96569.00
2022-12-18T02:12:24.019Z,96428.41
2022-12-18T02:13:41.921Z,96533.19
2022-12-18T02:15:08.115Z,96561.03
2022-12-18T02:16:15.461Z,96589.56
2022-12-18T02:17:46.467Z,96466.47
2022-12-18T02:18:57.484Z,96542.38
2022-12-18T02:20:21.154Z,96554.13
2022-12-18T02:21:33.494Z,96580.69
2022-12-18T02:22:38.244Z,96558.97
2022-12-18T02:23:53.494Z,96572.00
2022-12-18T02:24:57.906Z,96596.25
2022-12-18T02:26:06.076Z,96566.50
2022-12-18T02:27:10.168Z,96528.53
2022-12-18T02:28:16.704Z,96542.75
2022-12-18T02:30:45.365Z,96552.09
2022-12-18T02:31:52.954Z,96569.81
2022-12-18T02:32:56.897Z,96389.31
2022-12-18T02:34:03.288Z,96450.91
2022-12-18T02:35:09.416Z,96535.88
2022-12-18T02:36:14.104Z,96377.41
2022-12-18T02:37:19.672Z,96456.81
2022-12-18T02:38:21.824Z,96515.22
2022-12-18T02:39:26.844Z,96587.41
2022-12-18T02:40:29.440Z,96542.28
2022-12-18T02:41:32.091Z,96502.09
2022-12-18T02:42:33.996Z,96577.19
2022-12-18T02:43:35.923Z,96550.59
2022-12-18T02:44:47.089Z,96569.84
2022-12-18T02:45:53.866Z,96580.41
2022-12-18T02:46:55.748Z,96561.69
2022-12-18T02:47:57.600Z,96602.91
2022-12-18T02:49:25.210Z,96562.25
2022-12-18T02:50:45.607Z,96585.75
2022-12-18T02:52:18.214Z,96592.84
2022-12-18T02:53:34.958Z,96590.44
2022-12-18T02:55:09.234Z,96583.91
2022-12-18T02:56:16.919Z,96592.81
2022-12-18T02:57:34.640Z,96442.78
2022-12-18T02:59:24.581Z,96588.69
2022-12-18T03:00:31.081Z,96598.03
2022-12-18T03:01:40.322Z,96590.97
2022-12-18T03:03:04.412Z,96608.81
2022-12-18T03:04:13.977Z,96573.28
2022-12-18T03:05:21.360Z,96588.63
2022-12-18T03:06:33.250Z,96579.81
2022-12-18T03:07:54.235Z,96592.25
2022-12-18T03:09:03.327Z,96474.75
2022-12-18T03:10:08.996Z,96448.31
2022-12-18T03:11:13.771Z,96543.34
2022-12-18T03:12:25.891Z,96592.00
2022-12-18T03:13:42.291Z,96460.34
2022-12-18T03:14:46.604Z,96590.47
2022-12-18T03:15:54.191Z,96595.72
2022-12-18T03:17:00.053Z,96558.41
2022-12-18T03:18:14.702Z,96584.22
2022-12-18T03:19:21.413Z,96588.22
2022-12-18T03:20:27.065Z,96590.22
2022-12-18T03:21:36.663Z,96591.41
2022-12-18T03:22:39.550Z,96482.13
2022-12-18T03:23:49.131Z,96559.69
2022-12-18T03:24:53.196Z,96595.88
2022-12-18T03:26:04.503Z,96582.91
2022-12-18T03:27:15.900Z,96591.66
2022-12-18T03:28:22.705Z,96588.97
2022-12-18T03:29:36.748Z,96599.53
2022-12-18T03:30:41.355Z,96631.47
2022-12-18T03:31:49.053Z,96613.66
2022-12-18T03:33:17.659Z,96605.31
2022-12-18T03:34:28.012Z,96505.13
2022-12-18T03:35:38.693Z,96604.84
2022-12-18T03:36:40.703Z,96628.69
2022-12-18T03:37:42.508Z,96517.00
2022-12-18T03:38:44.304Z,96591.13
2022-12-18T03:39:45.993Z,96664.84
2022-12-18T03:41:18.080Z,96636.69
2022-12-18T03:42:31.274Z,96627.66
2022-12-18T03:43:58.022Z,96468.22
2022-12-18T03:45:35.693Z,96647.34
2022-12-18T03:46:51.699Z,96646.50
2022-12-18T03:48:30.764Z,96651.97
2022-12-18T03:49:32.478Z,96676.16
2022-12-18T03:50:46.562Z,96651.97
2022-12-18T03:52:03.965Z,96659.09
2022-12-18T03:53:23.636Z,96676.47
2022-12-18T03:54:27.359Z,96518.22
2022-12-18T03:55:33.641Z,96633.25
2022-12-18T03:56:43.172Z,96546.88
2022-12-18T03:57:46.870Z,96645.31
2022-12-18T03:58:50.934Z,96650.94
2022-12-18T03:59:58.675Z,96596.38
2022-12-18T04:01:03.930Z,96658.69
2022-12-18T04:02:08.027Z,96664.22
2022-12-18T04:03:12.082Z,96637.22
2022-12-18T04:04:16.343Z,96657.31
2022-12-18T04:05:18.815Z,96621.59
2022-12-18T04:06:21.334Z,96663.09
2022-12-18T04:07:24.444Z,96676.97
2022-12-18T04:08:27.488Z,96680.13
2022-12-18T04:09:31.196Z,96658.25
2022-12-18T04:10:33.068Z,96669.84
2022-12-18T04:11:34.907Z,96670.22
2022-12-18T04:12:38.868Z,96676.97
2022-12-18T04:13:41.243Z,96638.44
2022-12-18T04:14:43.270Z,96580.78
2022-12-18T04:15:45.061Z,96667.09
2022-12-18T04:16:46.904Z,96637.34
2022-12-18T04:17:50.310Z,96680.38
2022-12-18T04:18:52.280Z,96670.22
2022-12-18T04:19:53.961Z,96590.72
2022-12-18T04:20:55.803Z,96668.72
2022-12-18T04:21:57.585Z,96467.91
2022-12-18T04:22:59.369Z,96472.91
2022-12-18T04:24:01.084Z,96673.41
2022-12-18T04:25:02.819Z,96690.47
2022-12-18T04:26:04.715Z,96672.84
2022-12-18T04:27:07.844Z,96681.34
2022-12-18T04:28:09.479Z,96660.19
2022-12-18T04:29:11.191Z,96680.28
2022-12-18T04:30:13.116Z,96678.72
2022-12-18T04:31:15.051Z,96503.34
2022-12-18T04:32:16.798Z,96658.06
2022-12-18T04:33:19.121Z,96637.16
2022-12-18T04:34:21.564Z,96690.56
2022-12-18T04:35:23.296Z,96621.84
2022-12-18T04:36:25.012Z,96613.22
2022-12-18T04:37:26.651Z,96706.00
2022-12-18T04:38:28.419Z,96685.78
2022-12-18T04:39:30.189Z,96522.66
2022-12-18T04:40:31.884Z,96662.38
2022-12-18T04:41:33.700Z,96588.97
2022-12-18T04:42:35.537Z,96606.63
2022-12-18T04:43:37.914Z,96702.00
2022-12-18T04:44:39.854Z,96716.78
2022-12-18T04:45:41.597Z,96614.56
2022-12-18T04:46:43.645Z,96709.19
2022-12-18T04:47:45.369Z,96679.53
2022-12-18T04:48:47.936Z,96548.97
2022-12-18T04:49:49.663Z,96578.94
2022-12-18T04:50:51.379Z,96721.81
2022-12-18T04:51:53.083Z,96605.59
2022-12-18T04:52:55.822Z,96770.22
2022-12-18T04:53:57.856Z,96594.63
2022-12-18T04:54:59.582Z,96672.38
2022-12-18T04:56:09.833Z,96713.19
2022-12-18T04:57:11.500Z,96720.16
2022-12-18T04:58:13.271Z,96715.19
2022-12-18T04:59:14.994Z,96725.00
2022-12-18T05:00:16.967Z,96682.38
2022-12-18T05:01:20.013Z,96707.38
2022-12-18T05:02:21.938Z,96741.00
2022-12-18T05:03:23.801Z,96709.38
2022-12-18T05:04:25.600Z,96762.25
2022-12-18T05:05:27.449Z,96733.72
2022-12-18T05:06:29.170Z,96719.59
2022-12-18T05:07:30.985Z,96728.41
2022-12-18T05:08:33.408Z,96614.84
2022-12-18T05:09:35.127Z,96707.22
2022-12-18T05:10:38.467Z,96719.38
2022-12-18T05:11:40.510Z,96729.94
2022-12-18T05:12:42.224Z,96714.22
2022-12-18T05:13:45.577Z,96729.69
2022-12-18T05:14:47.417Z,96748.06
2022-12-18T05:15:53.991Z,96752.84
2022-12-18T05:17:00.677Z,96687.22
2022-12-18T05:18:04.235Z,96753.34
2022-12-18T05:19:05.896Z,96756.78
2022-12-18T05:20:08.002Z,96692.75
2022-12-18T05:21:09.989Z,96719.06
2022-12-18T05:22:11.754Z,96765.47
2022-12-18T05:23:13.446Z,96765.84
2022-12-18T05:24:15.272Z,96756.19
2022-12-18T05:25:17.987Z,96764.69
2022-12-18T05:26:19.945Z,96774.56
2022-12-18T05:27:21.626Z,96781.69
2022-12-18T05:28:24.676Z,96754.91
2022-12-18T05:29:26.420Z,96796.28
2022-12-18T05:30:28.132Z,96768.31
2022-12-18T05:31:32.397Z,96779.66
2022-12-18T05:32:37.913Z,96773.22
2022-12-18T05:33:39.931Z,96764.41
2022-12-18T05:34:41.891Z,96746.38
2022-12-18T05:35:44.904Z,96751.59
2022-12-18T05:36:46.627Z,96786.19
2022-12-18T05:37:48.371Z,96817.06
2022-12-18T05:38:50.250Z,96676.56
2022-12-18T05:39:51.912Z,96748.47
2022-12-18T05:40:54.857Z,96778.94
2022-12-18T05:41:56.620Z,96726.19
2022-12-18T05:42:58.337Z,96791.50
2022-12-18T05:44:00.353Z,96789.06
2022-12-18T05:45:02.099Z,96767.00
2022-12-18T05:46:17.690Z,96792.97
2022-12-18T05:47:19.393Z,96789.78
2022-12-18T05:48:21.909Z,96813.22
2022-12-18T05:49:23.598Z,96657.41
2022-12-18T05:50:25.277Z,96783.22
2022-12-18T05:51:27.600Z,96644.44
2022-12-18T05:52:29.326Z,96779.97
2022-12-18T05:53:31.036Z,96808.69
2022-12-18T05:54:32.817Z,96765.81
2022-12-18T05:55:40.387Z,96748.56
2022-12-18T05:56:48.393Z,96798.59
2022-12-18T05:57:50.428Z,96819.47
2022-12-18T05:58:54.239Z,96789.94
2022-12-18T05:59:55.958Z,96813.31
2022-12-18T06:00:58.396Z,96838.94
2022-12-18T06:02:00.298Z,96806.50
2022-12-18T06:03:03.366Z,96714.16
2022-12-18T06:04:05.359Z,96808.53
2022-12-18T06:05:07.743Z,96680.00
2022-12-18T06:06:15.276Z,96827.41
2022-12-18T06:07:16.987Z,96832.91
2022-12-18T06:08:18.623Z,96831.00
2022-12-18T06:09:20.335Z,96691.88
2022-12-18T06:10:22.034Z,96680.81
2022-12-18T06:11:26.559Z,96745.16
2022-12-18T06:12:28.203Z,96832.13
2022-12-18T06:13:29.932Z,96834.16
2022-12-18T06:14:31.619Z,96779.41
2022-12-18T06:15:33.943Z,96502.88
2022-12-18T06:16:35.641Z,96772.47
2022-12-18T06:17:37.752Z,96834.94
2022-12-18T06:18:39.767Z,96866.59
2022-12-18T06:19:41.420Z,96820.94
2022-12-18T06:20:43.115Z,96722.09
2022-12-18T06:21:44.807Z,96799.53
2022-12-18T06:22:46.574Z,96818.84
2022-12-18T06:23:48.480Z,96819.59
2022-12-18T06:24:50.133Z,96772.13
2022-12-18T06:25:52.259Z,96822.97
2022-12-18T06:26:53.976Z,96852.34
2022-12-18T06:27:55.731Z,96786.25
2022-12-18T06:28:57.484Z,96687.25
2022-12-18T06:29:59.663Z,96839.41
2022-12-18T06:31:01.508Z,96857.88
2022-12-18T06:32:03.267Z,96792.69
2022-12-18T06:33:05.177Z,96841.31
2022-12-18T06:34:06.906Z,96844.84
2022-12-18T06:35:09.075Z,96669.13
2022-12-18T06:36:13.100Z,96865.28
2022-12-18T06:37:14.833Z,96851.59
2022-12-18T06:38:16.566Z,96861.38
2022-12-18T06:39:18.319Z,96806.72
2022-12-18T06:40:20.088Z,96853.56
2022-12-18T06:41:22.415Z,96813.47
2022-12-18T06:42:25.026Z,96662.19
2022-12-18T06:43:26.833Z,96846.59
2022-12-18T06:44:28.560Z,96899.94
2022-12-18T06:45:30.316Z,96759.75
2022-12-18T06:46:32.074Z,96828.16
2022-12-18T06:47:33.769Z,96884.59
2022-12-18T06:48:36.153Z,96828.06
2022-12-18T06:49:37.866Z,96862.56
2022-12-18T06:50:43.557Z,96828.63
2022-12-18T06:51:45.281Z,96898.81
2022-12-18T06:52:47.423Z,96883.75
2022-12-18T06:53:49.440Z,96897.59
2022-12-18T06:54:51.100Z,96877.53
2022-12-18T06:55:52.791Z,96800.06
2022-12-18T06:56:58.656Z,96862.19
2022-12-18T06:58:00.362Z,96855.06
2022-12-18T06:59:02.223Z,96750.44
2022-12-18T07:00:06.826Z,96860.94
2022-12-18T07:01:11.907Z,96871.91
2022-12-18T07:02:13.972Z,96890.03
2022-12-18T07:03:15.764Z,96868.75
2022-12-18T07:04:17.549Z,96890.84
2022-12-18T07:05:19.307Z,96803.44
2022-12-18T07:06:23.275Z,96900.00
2022-12-18T07:07:25.171Z,96868.75
2022-12-18T07:08:27.140Z,96720.47
2022-12-18T07:09:31.954Z,96881.34
2022-12-18T07:10:33.758Z,96824.06
2022-12-18T07:11:35.414Z,96883.53
2022-12-18T07:12:37.184Z,96902.53
2022-12-18T07:13:39.657Z,96882.28
2022-12-18T07:14:41.551Z,96849.69
2022-12-18T07:15:44.264Z,96884.50
2022-12-18T07:16:47.277Z,96881.75
2022-12-18T07:17:49.047Z,96887.63
2022-12-18T07:18:50.948Z,96890.75
2022-12-18T07:19:52.745Z,96920.06
2022-12-18T07:20:54.437Z,96891.16
2022-12-18T07:21:56.180Z,96897.09
2022-12-18T07:22:57.847Z,96815.31
2022-12-18T07:23:59.574Z,96856.16
2022-12-18T07:25:01.367Z,96881.34
2022-12-18T07:26:14.067Z,96878.56
2022-12-18T07:27:15.792Z,96899.47
2022-12-18T07:28:17.793Z,96900.63
2022-12-18T07:29:19.924Z,96903.44
2022-12-18T07:30:21.719Z,96871.22
2022-12-18T07:31:23.537Z,96846.75
2022-12-18T07:32:25.338Z,96887.03
2022-12-18T07:33:27.172Z,96897.91
2022-12-18T07:34:29.096Z,96860.59
2022-12-18T07:35:30.854Z,96899.16
2022-12-18T07:36:32.561Z,96910.16
2022-12-18T07:37:34.247Z,96817.31
2022-12-18T07:38:36.757Z,96864.13
2022-12-18T07:39:38.532Z,96934.34
2022-12-18T07:40:40.347Z,96918.47
2022-12-18T07:41:46.605Z,96930.72
2022-12-18T07:42:49.005Z,96899.16
2022-12-18T07:43:50.832Z,96918.50
2022-12-18T07:44:53.048Z,96841.41
2022-12-18T07:45:54.912Z,96882.06
2022-12-18T07:46:56.673Z,96878.97
2022-12-18T07:47:58.432Z,96863.41
2022-12-18T07:49:00.124Z,96805.63
2022-12-18T07:50:01.890Z,96904.84
2022-12-18T07:51:06.619Z,96832.06
2022-12-18T07:52:08.300Z,96866.59
2022-12-18T07:53:10.011Z,96924.50
2022-12-18T07:54:11.713Z,96916.16
2022-12-18T07:55:13.567Z,96907.53
2022-12-18T07:56:31.787Z,96887.94
2022-12-18T07:57:49.984Z,96916.66
2022-12-18T07:58:52.737Z,96931.22
2022-12-18T07:59:54.398Z,96938.75
2022-12-18T08:01:07.098Z,96936.75
2022-12-18T08:02:09.062Z,96866.44
2022-12-18T08:03:10.977Z,96917.13
2022-12-18T08:04:13.990Z,96943.44
2022-12-18T08:05:15.912Z,96944.19
2022-12-18T08:06:17.669Z,96911.13
2022-12-18T08:07:19.400Z,96922.91
2022-12-18T08:08:21.178Z,96909.19
2022-12-18T08:09:22.828Z,96796.63
2022-12-18T08:10:24.537Z,96761.59
2022-12-18T08:11:28.111Z,96952.19
2022-12-18T08:12:29.803Z,96919.75
2022-12-18T08:13:31.706Z,96895.41
2022-12-18T08:14:33.420Z,96932.03
2022-12-18T08:15:35.225Z,96935.50
2022-12-18T08:16:37.052Z,96943.00
2022-12-18T08:17:38.748Z,96924.50
2022-12-18T08:18:40.442Z,96760.78
2022-12-18T08:19:42.102Z,96834.06
2022-12-18T08:20:43.905Z,96830.09
2022-12-18T08:21:45.644Z,96922.09
2022-12-18T08:22:47.415Z,96934.00
2022-12-18T08:23:51.148Z,96956.81
2022-12-18T08:24:53.297Z,96948.56
2022-12-18T08:25:54.991Z,96902.91
2022-12-18T08:27:27.881Z,96895.00
2022-12-18T08:28:18.920Z,96768.69
2022-12-18T08:29:21.793Z,96865.56
2022-12-18T08:30:23.613Z,96976.97
2022-12-18T08:31:27.687Z,96949.38
2022-12-18T08:32:30.066Z,96970.59
2022-12-18T08:33:32.187Z,96927.28
2022-12-18T08:34:33.999Z,96975.34
2022-12-18T08:35:45.435Z,96978.13
2022-12-18T08:36:47.640Z,96860.50
2022-12-18T08:37:49.410Z,96975.34
2022-12-18T08:38:51.189Z,96964.34
2022-12-18T08:39:52.838Z,96968.63
2022-12-18T08:41:06.236Z,96954.03
2022-12-18T08:42:10.243Z,96967.44
2022-12-18T08:43:12.361Z,96984.38
2022-12-18T08:44:14.138Z,96938.72
2022-12-18T08:45:16.041Z,96959.22
2022-12-18T08:46:19.878Z,96940.81
2022-12-18T08:47:21.765Z,96940.28
2022-12-18T08:48:23.551Z,96985.16
2022-12-18T08:49:25.187Z,96988.72
2022-12-18T08:50:26.919Z,96999.78
2022-12-18T08:51:28.623Z,96924.84
2022-12-18T08:52:33.275Z,96987.03
2022-12-18T08:53:35.900Z,96988.66
2022-12-18T08:54:37.799Z,96954.38
2022-12-18T08:55:39.468Z,96975.94
2022-12-18T08:56:41.200Z,96927.19
2022-12-18T08:57:42.948Z,96958.72
2022-12-18T08:58:44.837Z,96991.03
2022-12-18T08:59:46.543Z,96994.53
2022-12-18T09:00:48.292Z,96991.75
2022-12-18T09:01:50.169Z,96868.09
2022-12-18T09:02:51.999Z,96874.41
2022-12-18T09:03:53.752Z,96990.19
2022-12-18T09:04:57.504Z,96961.03
2022-12-18T09:06:00.032Z,96973.63
2022-12-18T09:07:01.727Z,96986.63
2022-12-18T09:08:03.491Z,96960.34
2022-12-18T09:09:06.152Z,96832.72
2022-12-18T09:10:08.290Z,96984.19
2022-12-18T09:11:25.013Z,96950.38
2022-12-18T09:12:26.896Z,96777.50
2022-12-18T09:13:28.671Z,96955.47
2022-12-18T09:14:30.370Z,96950.78
2022-12-18T09:15:32.052Z,96982.22
2022-12-18T09:16:34.213Z,96910.16
2022-12-18T09:17:36.404Z,96988.88
2022-12-18T09:18:38.468Z,96807.44
2022-12-18T09:19:40.613Z,96957.06
2022-12-18T09:20:42.509Z,96954.72
2022-12-18T09:21:47.958Z,96983.00
2022-12-18T09:22:50.196Z,96981.81
2022-12-18T09:23:52.730Z,96986.53
2022-12-18T09:24:54.416Z,96994.09
2022-12-18T09:26:00.580Z,96937.72
2022-12-18T09:27:02.478Z,96953.06
2022-12-18T09:28:12.978Z,96813.38
2022-12-18T09:29:16.787Z,97006.75
2022-12-18T09:30:20.800Z,96991.31
2022-12-18T09:31:24.851Z,96967.31
2022-12-18T09:32:26.819Z,96988.97
2022-12-18T09:33:28.473Z,96833.59
2022-12-18T09:34:30.158Z,96940.50
2022-12-18T09:35:31.921Z,96969.28
2022-12-18T09:36:34.143Z,96968.91
2022-12-18T09:37:35.862Z,96964.16
2022-12-18T09:38:37.949Z,96962.63
2022-12-18T09:39:39.829Z,96939.34
2022-12-18T09:40:46.811Z,96993.03
2022-12-18T09:41:53.633Z,96946.75
2022-12-18T09:43:00.905Z,96965.97
2022-12-18T09:44:21.142Z,96829.09
2022-12-18T09:45:24.434Z,96927.72
2022-12-18T09:46:36.476Z,96961.91
2022-12-18T09:47:40.315Z,96854.44
2022-12-18T09:48:47.300Z,96916.94
2022-12-18T09:49:55.025Z,96982.31
2022-12-18T09:51:03.828Z,96987.19
2022-12-18T09:52:38.552Z,96986.31
2022-12-18T09:53:44.631Z,96938.63
2022-12-18T09:54:56.112Z,96965.34
2022-12-18T09:55:58.551Z,96977.13
2022-12-18T09:57:00.517Z,96954.78
2022-12-18T09:58:10.641Z,96981.09
2022-12-18T09:59:35.293Z,96979.97
2022-12-18T10:00:37.192Z,96849.69
2022-12-18T10:01:44.124Z,96967.28
2022-12-18T10:02:47.442Z,96985.44
2022-12-18T10:03:49.886Z,96838.59
2022-12-18T10:05:06.320Z,96988.97
2022-12-18T10:06:15.234Z,96981.72
2022-12-18T10:07:36.709Z,96868.56
2022-12-18T10:08:53.175Z,97002.41
2022-12-18T10:10:09.570Z,96973.13
2022-12-18T10:11:35.956Z,96981.25
2022-12-18T10:12:53.385Z,96961.50
2022-12-18T10:14:10.097Z,96973.25
2022-12-18T10:15:34.262Z,97002.09
2022-12-18T10:16:41.660Z,96990.19
2022-12-18T10:17:49.942Z,96922.44
2022-12-18T10:19:12.648Z,96940.84
2022-12-18T10:20:36.157Z,96979.78
2022-12-18T10:21:53.711Z,96941.22
2022-12-18T10:23:10.275Z,96993.63
2022-12-18T10:24:19.355Z,97009.69
2022-12-18T10:25:26.234Z,96990.22
2022-12-18T10:26:27.934Z,96979.88
2022-12-18T10:27:30.099Z,96958.06
2022-12-18T10:28:36.574Z,96968.63
2022-12-18T10:29:39.046Z,96949.69
2022-12-18T10:30:42.752Z,96982.50
2022-12-18T10:31:44.648Z,97014.16
2022-12-18T10:32:46.579Z,96895.00
2022-12-18T10:33:48.604Z,96893.38
2022-12-18T10:34:58.315Z,96947.03
2022-12-18T10:36:02.047Z,96963.19
2022-12-18T10:37:12.874Z,96969.88
2022-12-18T10:38:17.272Z,97003.25
2022-12-18T10:39:23.445Z,96978.69
2022-12-18T10:40:25.311Z,96982.13
2022-12-18T10:41:27.905Z,96932.22
2022-12-18T10:42:31.351Z,96966.78
2022-12-18T10:43:38.459Z,96965.16
2022-12-18T10:44:40.186Z,96951.78
2022-12-18T10:45:43.195Z,96968.19
2022-12-18T10:46:51.388Z,96961.59
2022-12-18T10:47:53.578Z,96972.50
2022-12-18T10:48:57.010Z,96877.03
2022-12-18T10:49:58.712Z,96933.75
2022-12-18T10:51:10.920Z,96951.06
2022-12-18T10:52:25.329Z,96949.88
2022-12-18T10:53:30.195Z,96964.81
2022-12-18T10:54:33.745Z,96977.63
2022-12-18T10:55:38.766Z,96957.00
2022-12-18T10:56:40.813Z,96905.19
2022-12-18T10:57:44.271Z,96972.38
2022-12-18T10:58:58.571Z,96973.53
2022-12-18T11:00:14.322Z,96993.34
2022-12-18T11:01:18.755Z,96941.94
2022-12-18T11:02:50.578Z,96981.31
2022-12-18T11:03:59.024Z,96978.50
2022-12-18T11:05:23.325Z,96848.19
2022-12-18T11:06:26.638Z,96907.22
2022-12-18T11:07:49.508Z,96971.59
2022-12-18T11:09:13.108Z,96991.13
2022-12-18T11:10:18.948Z,96960.31
2022-12-18T11:11:23.456Z,96974.47
2022-12-18T11:12:25.209Z,96867.81
2022-12-18T11:13:30.131Z,96962.63
2022-12-18T11:14:34.490Z,96810.78
2022-12-18T11:15:36.842Z,96975.69
2022-12-18T11:17:03.173Z,96978.75
2022-12-18T11:18:18.093Z,96959.03
2022-12-18T11:19:32.613Z,96984.50
2022-12-18T11:20:36.856Z,97001.50
2022-12-18T11:21:43.507Z,96941.44
2022-12-18T11:22:57.678Z,96940.06
2022-12-18T11:23:59.832Z,96974.50
2022-12-18T11:26:36.928Z,96985.34
2022-12-18T11:27:40.457Z,96988.53
2022-12-18T11:28:47.462Z,96991.84
2022-12-18T11:29:52.039Z,96986.81
2022-12-18T11:31:21.528Z,96983.59
2022-12-18T11:32:33.375Z,96947.84
2022-12-18T11:33:35.836Z,96991.84
2022-12-18T11:34:38.004Z,96993.66
2022-12-18T11:36:00.475Z,96996.00
2022-12-18T11:37:04.590Z,96955.81
2022-12-18T11:38:36.979Z,96958.16
2022-12-18T11:39:46.151Z,96827.91
2022-12-18T11:41:04.129Z,96984.47
2022-12-18T11:42:13.757Z,96975.31
2022-12-18T11:43:26.106Z,96975.63
2022-12-18T11:44:54.072Z,96977.28
2022-12-18T11:46:26.213Z,96846.09
2022-12-18T11:47:45.245Z,96953.00
2022-12-18T11:48:58.233Z,96962.44
2022-12-18T11:50:04.734Z,96964.59
2022-12-18T11:51:13.908Z,96944.69
2022-12-18T11:52:21.013Z,96968.72
2022-12-18T11:53:23.554Z,96862.91
2022-12-18T11:54:25.258Z,96975.63
2022-12-18T11:55:40.379Z,96871.00
2022-12-18T11:57:05.798Z,96930.75
2022-12-18T11:58:31.589Z,96979.97
2022-12-18T11:59:47.848Z,96999.69
2022-12-18T12:01:02.776Z,96988.50
2022-12-18T12:02:26.259Z,96990.88
2022-12-18T12:04:16.078Z,96975.72
2022-12-18T12:05:39.497Z,96969.81
2022-12-18T12:07:18.968Z,96863.56
2022-12-18T12:08:39.337Z,96987.69
2022-12-18T12:10:01.863Z,96993.59
2022-12-18T12:11:28.515Z,96905.28
2022-12-18T12:12:35.981Z,96912.66
2022-12-18T12:14:00.375Z,96933.03
2022-12-18T12:15:40.213Z,96971.88
2022-12-18T12:16:58.369Z,96893.34
2022-12-18T12:18:19.891Z,96954.97
2022-12-18T12:19:44.685Z,97007.50
2022-12-18T12:21:01.571Z,96988.78
2022-12-18T12:22:19.580Z,96990.56
2022-12-18T12:23:50.770Z,96893.09
2022-12-18T12:25:11.100Z,96842.66
2022-12-18T12:26:34.613Z,96948.72
2022-12-18T12:27:54.599Z,96989.94
2022-12-18T12:29:20.959Z,96989.44
2022-12-18T12:30:41.757Z,96988.16
2022-12-18T12:31:57.669Z,96987.69
2022-12-18T12:33:02.039Z,96805.91
2022-12-18T12:34:36.346Z,96984.97
2022-12-18T12:36:10.852Z,96985.75
2022-12-18T12:37:38.455Z,97003.97
2022-12-18T12:38:51.934Z,96982.97
2022-12-18T12:39:55.928Z,96996.50
2022-12-18T12:41:06.693Z,96988.53
2022-12-18T12:42:20.021Z,97028.31
2022-12-18T12:43:25.499Z,96994.34
2022-12-18T12:44:40.527Z,96953.22
2022-12-18T12:46:08.401Z,96979.09
2022-12-18T12:47:29.516Z,96978.81
2022-12-18T12:48:52.034Z,96977.75
2022-12-18T12:49:55.446Z,96983.41
2022-12-18T12:50:58.097Z,96822.25
2022-12-18T12:52:11.958Z,96958.28
2022-12-18T12:53:35.657Z,96961.41
2022-12-18T12:54:38.381Z,96962.78
2022-12-18T12:55:42.561Z,96970.13
2022-12-18T12:57:09.982Z,97006.56
2022-12-18T12:58:30.408Z,96978.31
2022-12-18T12:59:58.803Z,96975.25
2022-12-18T13:01:16.193Z,97017.97
2022-12-18T13:02:47.833Z,96988.03
2022-12-18T13:03:49.886Z,97012.44